Time;durP1;ratioP1;P1;durP2;ratioP2;P2;SDS_P1;SDS_P2;PMS_P1;PMS_P2;Temp;Humidity;BMP_temperature;BMP_pressure;BME280_temperature;BME280_humidity;BME280_pressure;Samples;Min_cycle;Max_cycle;Signal;HPM_P1;HPM_P2
2021/11/02 00:00:36;;;;;;;36.30;19.07;;;;;;;7.67;100.00;99492.84;5061822;28;20553;-70
2021/11/02 00:03:03;;;;;;;31.20;17.63;;;;;;;7.67;100.00;99486.78;5060050;28;20231;-70
2021/11/02 00:05:30;;;;;;;29.73;17.63;;;;;;;7.65;100.00;99486.84;5062950;28;20287;-71
2021/11/02 00:07:58;;;;;;;33.93;18.80;;;;;;;7.65;100.00;99485.97;5061636;28;20257;-71
2021/11/02 00:10:24;;;;;;;32.23;17.40;;;;;;;7.65;100.00;99478.19;5061369;28;20195;-71
2021/11/02 00:12:52;;;;;;;32.57;17.40;;;;;;;7.64;100.00;99474.78;5063456;28;20233;-71
2021/11/02 00:15:22;;;;;;;33.33;17.43;;;;;;;7.64;100.00;99468.75;5058712;28;20199;-70
2021/11/02 00:17:51;;;;;;;28.40;16.93;;;;;;;7.64;100.00;99460.97;5057486;28;20225;-69
2021/11/02 00:20:18;;;;;;;28.67;16.00;;;;;;;7.63;100.00;99464.44;5066889;28;20235;-70
2021/11/02 00:22:53;;;;;;;27.43;15.67;;;;;;;7.62;100.00;99463.59;5055839;28;20318;-71
2021/11/02 00:25:22;;;;;;;30.27;15.03;;;;;;;7.62;100.00;99457.56;5058332;28;20213;-69
2021/11/02 00:27:49;;;;;;;25.63;15.40;;;;;;;7.62;100.00;99460.16;5059829;28;20218;-71
2021/11/02 00:30:17;;;;;;;26.30;13.90;;;;;;;7.61;100.00;99456.69;5057986;28;20619;-70
2021/11/02 00:32:44;;;;;;;24.67;14.40;;;;;;;7.60;100.00;99455.03;5058933;28;20729;-71
2021/11/02 00:35:11;;;;;;;21.70;13.57;;;;;;;7.60;100.00;99447.25;5060163;28;20621;-71
2021/11/02 00:37:38;;;;;;;21.50;13.53;;;;;;;7.61;100.00;99450.66;5061363;28;20190;-71
2021/11/02 00:40:07;;;;;;;23.70;13.93;;;;;;;7.61;100.00;99450.66;5053961;28;20302;-70
2021/11/02 00:42:38;;;;;;;22.83;13.30;;;;;;;7.60;100.00;99449.84;5053101;28;20242;-71
2021/11/02 00:45:06;;;;;;;24.23;12.90;;;;;;;7.60;100.00;99439.47;5055216;28;20203;-71
2021/11/02 00:47:33;;;;;;;27.73;13.87;;;;;;;7.59;100.00;99438.59;5061044;28;20698;-70
2021/11/02 00:50:00;;;;;;;23.70;12.00;;;;;;;7.58;100.00;99434.31;5055749;28;20699;-71
2021/11/02 00:52:28;;;;;;;22.47;12.43;;;;;;;7.59;100.00;99433.41;5059049;28;20276;-71
2021/11/02 00:54:54;;;;;;;25.50;13.53;;;;;;;7.58;100.00;99426.53;5055757;28;20211;-70
2021/11/02 00:57:22;;;;;;;25.00;13.13;;;;;;;7.59;100.00;99424.78;5054905;28;20199;-71
2021/11/02 00:59:50;;;;;;;25.03;11.70;;;;;;;7.59;100.00;99424.78;5057982;28;20206;-70
2021/11/02 01:02:18;;;;;;;21.10;12.23;;;;;;;7.59;100.00;99417.84;5057398;28;20572;-71
2021/11/02 01:04:45;;;;;;;20.53;11.47;;;;;;;7.57;100.00;99414.44;5059029;28;20277;-71
2021/11/02 01:07:11;;;;;;;21.33;10.83;;;;;;;7.56;100.00;99420.56;5060146;28;20825;-71
2021/11/02 01:09:38;;;;;;;20.03;10.77;;;;;;;7.55;100.00;99407.63;5053619;28;20203;-71
2021/11/02 01:12:05;;;;;;;17.97;10.93;;;;;;;7.54;100.00;99413.69;5057497;28;20229;-71
2021/11/02 01:14:32;;;;;;;22.40;10.87;;;;;;;7.51;100.00;99404.28;5060408;28;20219;-70
2021/11/02 01:17:00;;;;;;;15.23;10.30;;;;;;;7.52;100.00;99399.94;5058734;28;20207;-70
2021/11/02 01:19:27;;;;;;;17.70;10.43;;;;;;;7.51;100.00;99401.69;5056447;28;20197;-71
2021/11/02 01:21:54;;;;;;;18.93;10.83;;;;;;;7.51;100.00;99398.22;5060031;28;20603;-71
2021/11/02 01:24:25;;;;;;;19.27;11.10;;;;;;;7.51;100.00;99400.81;5060047;28;20684;-69
2021/11/02 01:26:53;;;;;;;17.83;10.60;;;;;;;7.51;100.00;99393.03;5058310;28;20317;-70
2021/11/02 01:29:23;;;;;;;19.67;10.20;;;;;;;7.50;100.00;99397.41;5059043;28;20726;-71
2021/11/02 01:31:50;;;;;;;16.43;10.37;;;;;;;7.48;100.00;99394.00;5055241;28;20235;-69
2021/11/02 01:34:20;;;;;;;18.37;10.40;;;;;;;7.49;100.00;99384.47;5054304;28;20203;-70
2021/11/02 01:36:52;;;;;;;18.07;9.50;;;;;;;7.47;100.00;99391.47;5055484;28;20652;-71
2021/11/02 01:39:21;;;;;;;17.50;10.30;;;;;;;7.47;100.00;99388.88;5058703;28;20215;-70
2021/11/02 01:41:51;;;;;;;15.13;8.70;;;;;;;7.47;100.00;99389.72;5060965;28;20237;-71
2021/11/02 01:44:20;;;;;;;15.27;9.40;;;;;;;7.46;100.00;99381.97;5054883;28;20235;-71
2021/11/02 01:46:47;;;;;;;15.87;9.07;;;;;;;7.46;100.00;99379.38;5053623;28;20219;-70
2021/11/02 01:49:14;;;;;;;16.30;9.83;;;;;;;7.44;100.00;99383.78;5060052;28;20262;-70
2021/11/02 01:51:44;;;;;;;15.60;9.80;;;;;;;7.44;100.00;99378.59;5059482;28;20223;-71
2021/11/02 01:54:11;;;;;;;17.77;10.60;;;;;;;7.43;100.00;99375.16;5056641;28;20264;-71
2021/11/02 01:56:45;;;;;;;21.40;11.13;;;;;;;7.42;100.00;99365.66;5054847;28;20202;-70
2021/11/02 01:59:13;;;;;;;19.03;10.70;;;;;;;7.43;100.00;99376.91;5055909;28;20223;-70
2021/11/02 02:02:00;;;;;;;19.80;10.33;;;;;;;7.43;100.00;99374.31;5054777;28;20226;-71
2021/11/02 02:04:39;;;;;;;20.03;11.10;;;;;;;7.42;100.00;99372.63;5060088;28;20230;-71
2021/11/02 02:07:18;;;;;;;19.00;10.73;;;;;;;7.42;100.00;99370.84;5060628;28;20644;-71
2021/11/02 02:09:50;;;;;;;20.20;10.60;;;;;;;7.42;100.00;99363.06;5059750;28;20206;-71
2021/11/02 02:12:30;;;;;;;17.40;10.03;;;;;;;7.43;100.00;99364.78;5062019;28;20226;-70
2021/11/02 02:15:05;;;;;;;15.63;9.23;;;;;;;7.42;100.00;99365.66;5062847;28;20225;-71
2021/11/02 02:17:37;;;;;;;19.87;10.70;;;;;;;7.42;100.00;99370.00;5080806;28;20217;-71
2021/11/02 02:20:08;;;;;;;17.17;9.90;;;;;;;7.44;100.00;99366.50;5056559;28;20332;-71
2021/11/02 02:22:58;;;;;;;19.10;10.30;;;;;;;7.42;100.00;99360.47;5061243;28;20253;-71
2021/11/02 02:25:36;;;;;;;17.60;9.87;;;;;;;7.45;100.00;99364.75;5060375;28;20210;-71
2021/11/02 02:28:16;;;;;;;17.23;9.93;;;;;;;7.45;100.00;99372.50;5063383;28;20218;-71
2021/11/02 02:30:47;;;;;;;18.53;10.43;;;;;;;7.44;100.00;99363.91;5064099;28;20290;-71
2021/11/02 02:33:18;;;;;;;16.00;10.07;;;;;;;7.43;100.00;99367.38;5057575;28;20268;-71
2021/11/02 02:35:46;;;;;;;20.27;10.37;;;;;;;7.42;100.00;99365.66;5060498;28;20372;-71
2021/11/02 02:38:16;;;;;;;17.63;10.13;;;;;;;7.41;100.00;99366.59;5059991;28;20232;-70
2021/11/02 02:40:46;;;;;;;19.83;11.43;;;;;;;7.44;100.00;99374.28;5057115;28;20213;-71
2021/11/02 02:43:15;;;;;;;21.10;10.23;;;;;;;7.43;100.00;99371.72;5058148;28;20254;-71
2021/11/02 02:45:45;;;;;;;18.43;10.20;;;;;;;7.43;100.00;99374.31;5059239;28;20225;-71
2021/11/02 02:48:14;;;;;;;22.03;10.00;;;;;;;7.42;100.00;99372.63;5056587;28;20620;-70
2021/11/02 02:50:42;;;;;;;18.20;9.80;;;;;;;7.42;100.00;99367.41;5058700;28;20208;-71
2021/11/02 02:53:09;;;;;;;16.40;9.43;;;;;;;7.42;100.00;99370.00;5054463;28;20219;-71
2021/11/02 02:55:36;;;;;;;16.77;9.17;;;;;;;7.39;100.00;99361.44;5063898;28;20206;-71
2021/11/02 02:58:03;;;;;;;17.23;9.70;;;;;;;7.41;100.00;99368.34;5058275;28;20201;-70
2021/11/02 03:00:32;;;;;;;14.90;9.20;;;;;;;7.37;100.00;99358.06;5058239;28;20559;-71
2021/11/02 03:03:01;;;;;;;17.90;9.23;;;;;;;7.39;100.00;99370.97;5054261;28;20224;-70
2021/11/02 03:05:30;;;;;;;17.87;9.97;;;;;;;7.38;100.00;99361.50;5062352;28;20202;-71
2021/11/02 03:08:03;;;;;;;14.90;9.07;;;;;;;7.37;100.00;99362.41;5063067;28;20206;-71
2021/11/02 03:10:31;;;;;;;14.53;7.93;;;;;;;7.36;100.00;99365.88;5060884;28;20217;-71
2021/11/02 03:13:04;;;;;;;17.13;9.20;;;;;;;7.37;100.00;99367.59;5063871;28;20247;-71
2021/11/02 03:15:49;;;;;;;12.67;7.77;;;;;;;7.37;100.00;99365.00;5057880;28;20202;-71
2021/11/02 03:18:29;;;;;;;14.13;7.97;;;;;;;7.38;100.00;99364.09;5061113;28;20581;-71
2021/11/02 03:43:42;;;;;;;10.47;6.93;;;;;;;7.28;100.00;99341.94;5060341;28;20219;-70
2021/11/02 03:49:04;;;;;;;11.27;5.97;;;;;;;7.26;100.00;99354.13;5060828;28;20594;-71
2021/11/02 03:57:25;;;;;;;8.53;6.03;;;;;;;7.24;100.00;99345.53;5059355;28;20738;-71
2021/11/02 04:00:27;;;;;;;8.37;5.73;;;;;;;7.23;100.00;99344.72;5060660;28;20226;-71
2021/11/02 04:31:54;;;;;;;9.23;4.87;;;;;;;7.16;100.00;99317.28;5060775;28;20206;-71
2021/11/02 04:34:50;;;;;;;10.20;5.23;;;;;;;7.15;100.00;99315.59;5058976;28;20715;-71
2021/11/02 04:43:58;;;;;;;10.20;5.53;;;;;;;7.12;100.00;99307.91;5054431;28;20222;-71
2021/11/02 05:47:51;;;;;;;6.70;4.50;;;;;;;6.95;100.00;99311.06;5057545;28;20280;-70
2021/11/02 05:50:38;;;;;;;5.70;4.00;;;;;;;6.93;100.00;99302.47;5057451;28;20202;-70
2021/11/02 05:56:16;;;;;;;5.07;4.00;;;;;;;6.91;100.00;99302.53;5061688;28;20348;-71
2021/11/02 05:58:56;;;;;;;7.47;3.87;;;;;;;6.90;100.00;99308.59;5063932;28;20585;-71
2021/11/02 06:01:38;;;;;;;4.83;3.70;;;;;;;6.92;100.00;99301.63;5060606;28;20228;-70
2021/11/02 06:04:30;;;;;;;5.10;3.90;;;;;;;6.92;100.00;99301.63;5060070;28;20614;-71
2021/11/02 06:07:19;;;;;;;5.03;4.07;;;;;;;6.92;100.00;99298.19;5057244;28;20207;-71
2021/11/02 06:09:53;;;;;;;5.33;3.43;;;;;;;6.92;100.00;99298.19;5058655;28;20214;-71
2021/11/02 06:29:05;;;;;;;4.87;4.07;;;;;;;6.99;100.00;99300.53;5057606;28;20210;-71
2021/11/02 06:31:34;;;;;;;8.03;4.33;;;;;;;7.02;100.00;99299.59;5056165;28;20346;-71
2021/11/02 06:34:08;;;;;;;4.90;3.83;;;;;;;7.04;100.00;99302.16;5056017;28;20202;-70
2021/11/02 06:37:02;;;;;;;5.30;3.97;;;;;;;7.05;100.00;99301.22;5056757;28;20210;-71
2021/11/02 06:39:50;;;;;;;6.00;4.30;;;;;;;7.05;100.00;99304.66;5059387;28;20195;-71
2021/11/02 06:45:41;;;;;;;7.00;5.73;;;;;;;7.07;100.00;99302.91;5062692;28;20242;-71
2021/11/02 06:48:27;;;;;;;7.07;5.77;;;;;;;7.10;100.00;99307.94;5058404;28;20239;-71
2021/11/02 06:51:25;;;;;;;6.73;4.90;;;;;;;7.12;100.00;99302.72;5059797;28;20694;-71
2021/11/02 06:54:09;;;;;;;8.80;5.90;;;;;;;7.13;100.00;99307.84;5061729;28;20202;-71
2021/11/02 07:00:22;;;;;;;10.07;5.43;;;;;;;7.15;100.00;99297.44;5057357;28;20679;-71
2021/11/02 07:17:09;;;;;;;7.43;5.10;;;;;;;7.27;100.00;99297.03;5061701;28;20203;-71
2021/11/02 07:19:38;;;;;;;6.30;4.60;;;;;;;7.28;100.00;99303.94;5057736;28;20209;-71
2021/11/02 07:22:21;;;;;;;10.83;5.47;;;;;;;7.29;100.00;99305.59;5061445;28;20260;-71
2021/11/02 07:25:03;;;;;;;10.17;6.00;;;;;;;7.30;100.00;99298.66;5057527;28;20210;-71
2021/11/02 07:27:50;;;;;;;8.40;5.20;;;;;;;7.33;100.00;99301.16;5059723;28;20213;-71
2021/11/02 08:45:29;;;;;;;11.03;8.07;;;;;;;8.03;100.00;99290.03;5057238;28;20198;-71
2021/11/02 08:48:00;;;;;;;10.67;6.67;;;;;;;8.04;100.00;99290.88;5056019;28;20316;-71
2021/11/02 08:50:32;;;;;;;10.47;8.07;;;;;;;8.09;100.00;99289.81;5057023;28;20214;-71
2021/11/02 08:53:00;;;;;;;10.97;8.33;;;;;;;8.13;100.00;99283.59;5059357;28;20440;-71
2021/11/02 08:55:27;;;;;;;11.87;8.67;;;;;;;8.21;100.00;99285.06;5057183;28;20215;-71
2021/11/02 08:57:56;;;;;;;11.97;8.13;;;;;;;8.25;100.00;99286.63;5057472;28;20569;-70
2021/11/02 09:00:23;;;;;;;11.20;7.63;;;;;;;8.27;100.00;99290.88;5057579;28;20209;-71
2021/11/02 09:02:53;;;;;;;14.53;9.17;;;;;;;8.33;100.00;99285.44;5057071;28;20213;-71
2021/11/02 09:05:24;;;;;;;12.40;8.03;;;;;;;8.41;100.00;99287.75;5058964;28;20201;-71
2021/11/02 09:07:55;;;;;;;12.17;8.10;;;;;;;8.46;100.00;99280.66;5055790;28;20571;-70
2021/11/02 09:10:22;;;;;;;11.87;7.80;;;;;;;8.53;100.00;99289.91;5060342;28;20190;-71
2021/11/02 09:12:51;;;;;;;8.73;7.13;;;;;;;8.64;100.00;99291.25;5054171;28;20241;-71
2021/11/02 09:15:24;;;;;;;10.60;7.53;;;;;;;8.69;100.00;99284.97;5056438;28;20197;-71
2021/11/02 09:17:53;;;;;;;12.27;8.47;;;;;;;8.82;100.00;99292.25;5056250;28;20220;-71
2021/11/02 09:20:20;;;;;;;10.43;8.00;;;;;;;8.90;100.00;99288.44;5056301;28;20207;-71
2021/11/02 09:22:48;;;;;;;10.03;7.40;;;;;;;8.95;100.00;99295.22;5056052;28;20224;-71
2021/11/02 09:25:18;;;;;;;11.00;8.07;;;;;;;9.00;100.00;99294.09;5059426;28;20586;-71
2021/11/02 09:27:45;;;;;;;12.63;8.27;;;;;;;9.12;100.00;99286.72;5052073;28;20233;-70
2021/11/02 09:30:13;;;;;;;11.17;7.83;;;;;;;9.25;100.00;99288.75;5056455;28;20211;-71
2021/11/02 09:32:42;;;;;;;11.30;8.23;;;;;;;9.32;100.00;99288.47;5057898;28;20232;-71
2021/11/02 09:35:09;;;;;;;10.00;7.13;;;;;;;9.33;100.00;99291.03;5057271;28;20211;-71
2021/11/02 09:37:37;;;;;;;8.40;6.27;;;;;;;9.42;100.00;99293.22;5057106;28;20195;-72
2021/11/02 09:40:14;;;;;;;8.90;6.60;;;;;;;9.39;100.00;99298.59;5059277;28;20210;-71
2021/11/02 09:43:22;;;;;;;8.33;6.33;;;;;;;9.44;100.00;99298.38;5062681;28;20261;-71
2021/11/02 09:46:43;;;;;;;10.37;7.27;;;;;;;9.44;100.00;99299.19;5051848;28;20207;-71
2021/11/02 09:50:03;;;;;;;7.30;6.00;;;;;;;9.44;100.00;99294.00;5022372;28;20238;-71
2021/11/02 09:52:56;;;;;;;9.33;6.27;;;;;;;9.40;100.00;99296.81;5047336;28;20911;-71
2021/11/02 09:55:57;;;;;;;8.80;6.33;;;;;;;9.40;100.00;99292.44;5055849;28;20768;-71
2021/11/02 09:58:50;;;;;;;8.40;6.10;;;;;;;9.53;100.00;99287.56;5056894;28;20217;-71
2021/11/02 10:01:31;;;;;;;7.13;6.40;;;;;;;9.64;100.00;99284.53;5053807;28;20830;-71
2021/11/02 10:04:40;;;;;;;7.03;6.20;;;;;;;9.64;100.00;99280.16;5056118;28;20325;-71
2021/11/02 10:07:37;;;;;;;8.37;6.73;;;;;;;9.66;100.00;99274.88;5058912;28;20210;-70
2021/11/02 10:10:12;;;;;;;8.73;6.33;;;;;;;9.58;100.00;99276.97;5057647;28;20203;-71
2021/11/02 10:12:47;;;;;;;6.87;5.53;;;;;;;9.57;100.00;99286.53;5054684;28;20309;-70
2021/11/02 10:15:34;;;;;;;7.00;5.80;;;;;;;9.57;100.00;99273.53;5055490;28;20203;-71
2021/11/02 10:18:19;;;;;;;6.90;5.60;;;;;;;9.58;100.00;99279.56;5055537;28;20206;-72
2021/11/02 10:21:21;;;;;;;8.40;6.03;;;;;;;9.55;100.00;99272.75;5057878;28;20217;-71
2021/11/02 10:24:18;;;;;;;7.87;5.70;;;;;;;9.59;100.00;99276.06;5058160;28;20309;-71
2021/11/02 10:27:03;;;;;;;8.07;6.23;;;;;;;9.55;100.00;99275.34;5056845;28;20907;-71
2021/11/02 10:30:03;;;;;;;8.27;6.20;;;;;;;9.58;100.00;99280.41;5057814;28;20219;-71
2021/11/02 10:32:37;;;;;;;7.40;6.47;;;;;;;9.55;100.00;99270.16;5060837;28;20230;-71
2021/11/02 10:35:13;;;;;;;7.60;6.80;;;;;;;9.58;100.00;99275.19;5062358;28;20558;-71
2021/11/02 10:37:48;;;;;;;6.97;6.27;;;;;;;9.53;100.00;99274.53;5059089;28;20207;-71
2021/11/02 10:40:26;;;;;;;17.57;10.37;;;;;;;9.63;100.00;99269.81;5057846;28;20199;-71
2021/11/02 10:43:30;;;;;;;8.83;6.33;;;;;;;9.72;100.00;99271.16;5061639;28;20734;-71
2021/11/02 10:46:03;;;;;;;7.57;6.00;;;;;;;9.79;100.00;99272.56;5064131;28;20214;-70
2021/11/02 10:48:39;;;;;;;6.70;6.07;;;;;;;9.94;100.00;99269.28;5058015;28;20227;-70
2021/11/02 10:51:09;;;;;;;9.20;6.47;;;;;;;10.03;100.00;99274.06;5057442;28;20206;-71
2021/11/02 10:53:38;;;;;;;9.73;6.93;;;;;;;10.12;100.00;99269.38;5064036;28;20749;-71
2021/11/02 10:56:12;;;;;;;8.33;6.60;;;;;;;10.23;100.00;99269.72;5058395;28;20302;-70
2021/11/02 10:58:45;;;;;;;9.10;6.47;;;;;;;10.27;100.00;99270.41;5052896;28;20726;-71
2021/11/02 11:01:13;;;;;;;8.40;5.80;;;;;;;10.11;100.00;99272.88;5056107;28;20222;-71
2021/11/02 11:03:42;;;;;;;8.30;6.23;;;;;;;10.10;100.00;99271.22;5060160;28;20239;-71
2021/11/02 11:06:09;;;;;;;9.10;7.10;;;;;;;10.02;100.00;99268.94;5057746;28;20204;-70
2021/11/02 11:08:37;;;;;;;7.57;6.50;;;;;;;9.99;100.00;99269.94;5060188;28;20258;-71
2021/11/02 11:11:06;;;;;;;7.40;6.10;;;;;;;9.98;100.00;99270.84;5058726;28;20685;-71
2021/11/02 11:13:33;;;;;;;11.43;8.00;;;;;;;10.01;100.00;99267.25;5059770;28;20206;-71
2021/11/02 11:16:12;;;;;;;9.87;6.40;;;;;;;10.02;100.00;99271.53;5060491;28;20204;-72
2021/11/02 11:18:53;;;;;;;12.17;8.00;;;;;;;10.01;100.00;99275.06;5055852;28;20310;-71
2021/11/02 11:21:22;;;;;;;10.23;7.03;;;;;;;10.03;100.00;99270.63;5064614;28;20214;-71
2021/11/02 11:23:56;;;;;;;10.80;8.60;;;;;;;10.08;100.00;99273.88;5062331;28;20199;-71
2021/11/02 11:26:25;;;;;;;6.83;6.03;;;;;;;10.00;100.00;99271.59;5060300;28;20199;-71
2021/11/02 11:28:53;;;;;;;7.27;6.50;;;;;;;9.96;100.00;99270.06;5059608;28;20231;-71
2021/11/02 11:31:22;;;;;;;7.20;6.40;;;;;;;9.96;100.00;99275.28;5055178;28;20204;-71
2021/11/02 11:33:56;;;;;;;6.57;5.83;;;;;;;9.91;100.00;99279.00;5062282;28;20261;-72
2021/11/02 11:36:26;;;;;;;8.03;5.67;;;;;;;9.94;100.00;99279.72;5060453;28;20207;-71
2021/11/02 11:38:58;;;;;;;7.17;6.10;;;;;;;9.90;100.00;99280.75;5059997;28;20215;-72
2021/11/02 11:41:26;;;;;;;7.30;6.10;;;;;;;9.97;100.00;99276.09;5062273;28;20229;-71
2021/11/02 11:43:54;;;;;;;7.30;5.87;;;;;;;9.98;100.00;99272.59;5063770;28;20567;-72
2021/11/02 11:46:22;;;;;;;8.43;7.03;;;;;;;10.07;100.00;99272.19;5063987;28;20206;-71
2021/11/02 11:48:55;;;;;;;7.50;6.63;;;;;;;10.14;100.00;99270.16;5062725;28;20713;-71
2021/11/02 11:51:23;;;;;;;6.60;5.93;;;;;;;10.08;100.00;99271.28;5057659;28;20258;-71
2021/11/02 11:53:57;;;;;;;6.97;5.90;;;;;;;10.20;100.00;99275.91;5061804;28;20214;-71
2021/11/02 11:56:24;;;;;;;7.97;5.90;;;;;;;10.24;100.00;99279.22;5058609;28;20208;-71
2021/11/02 11:58:54;;;;;;;6.87;5.73;;;;;;;10.25;100.00;99280.91;5063605;28;20199;-71
2021/11/02 12:01:26;;;;;;;8.20;5.80;;;;;;;10.14;100.00;99284.00;5053531;28;20206;-71
2021/11/02 12:04:02;;;;;;;5.87;5.27;;;;;;;10.11;100.00;99281.53;5057604;28;20208;-72
2021/11/02 12:06:34;;;;;;;16.53;10.63;;;;;;;10.11;100.00;99280.69;5061450;28;20218;-71
2021/11/02 12:09:07;;;;;;;9.13;5.83;;;;;;;10.07;100.00;99282.59;5059016;28;20231;-71
2021/11/02 12:11:36;;;;;;;6.90;5.27;;;;;;;9.97;100.00;99279.56;5055178;28;20228;-71
2021/11/02 12:14:08;;;;;;;7.27;5.40;;;;;;;10.03;100.00;99281.88;5061268;28;20211;-70
2021/11/02 12:16:37;;;;;;;6.40;4.93;;;;;;;10.00;100.00;99283.78;5057165;28;20875;-71
2021/11/02 12:19:09;;;;;;;6.83;5.37;;;;;;;10.04;100.00;99275.78;5062621;28;20203;-71
2021/11/02 12:21:37;;;;;;;9.47;5.53;;;;;;;10.02;100.00;99274.97;5058461;28;20230;-71
2021/11/02 12:24:06;;;;;;;8.40;5.20;;;;;;;9.98;100.00;99273.44;5061432;28;20751;-71
2021/11/02 12:26:43;;;;;;;7.27;4.83;;;;;;;9.96;100.00;99275.28;5062663;28;20290;-71
2021/11/02 12:29:16;;;;;;;6.10;4.83;;;;;;;9.98;100.00;99273.44;5059651;28;20330;-71
2021/11/02 12:31:44;;;;;;;10.17;5.17;;;;;;;10.01;100.00;99267.25;5059486;28;20806;-71
2021/11/02 12:34:14;;;;;;;5.93;5.30;;;;;;;9.99;100.00;99271.66;5058820;28;20672;-71
2021/11/02 12:36:49;;;;;;;5.90;5.00;;;;;;;9.90;100.00;99272.94;5055098;28;20228;-71
2021/11/02 12:39:19;;;;;;;5.77;4.50;;;;;;;9.91;100.00;99273.78;5054877;28;20205;-72
2021/11/02 12:41:51;;;;;;;7.53;4.67;;;;;;;9.91;100.00;99273.78;5054682;28;20461;-72
2021/11/02 12:44:22;;;;;;;7.33;4.80;;;;;;;9.93;100.00;99274.56;5057162;28;20212;-72
2021/11/02 12:46:51;;;;;;;6.10;5.07;;;;;;;10.02;100.00;99268.94;5057610;28;20207;-72
2021/11/02 12:49:28;;;;;;;6.30;4.20;;;;;;;9.99;100.00;99275.13;5058186;28;20285;-71
2021/11/02 12:52:02;;;;;;;6.83;5.20;;;;;;;9.95;100.00;99280.53;5058850;28;20580;-71
2021/11/02 12:54:29;;;;;;;5.33;4.83;;;;;;;9.96;100.00;99272.66;5055763;28;20920;-72
2021/11/02 12:57:02;;;;;;;8.40;4.97;;;;;;;10.01;100.00;99277.69;5058934;28;20588;-71
2021/11/02 12:59:35;;;;;;;6.00;4.57;;;;;;;10.03;100.00;99279.28;5056590;28;20202;-72
2021/11/02 13:02:16;;;;;;;5.23;4.73;;;;;;;10.08;100.00;99270.41;5059663;28;20252;-71
2021/11/02 13:04:45;;;;;;;8.77;5.20;;;;;;;10.07;100.00;99271.34;5059786;28;20995;-72
2021/11/02 13:07:14;;;;;;;4.87;4.30;;;;;;;10.04;100.00;99265.38;5060373;28;20266;-71
2021/11/02 13:09:41;;;;;;;6.00;4.83;;;;;;;10.19;100.00;99268.19;5056719;28;20219;-72
2021/11/02 13:12:09;;;;;;;7.10;4.27;;;;;;;10.24;100.00;99264.44;5059113;28;20822;-72
2021/11/02 13:14:37;;;;;;;7.43;5.83;;;;;;;10.27;100.00;99273.03;5061883;28;20239;-71
2021/11/02 13:17:07;;;;;;;9.00;5.27;;;;;;;10.17;100.00;99275.22;5054823;28;20233;-71
2021/11/02 13:19:36;;;;;;;8.33;4.90;;;;;;;10.16;100.00;99273.53;5058279;28;20205;-71
2021/11/02 13:22:09;;;;;;;6.63;4.70;;;;;;;10.08;100.00;99273.00;5059893;28;20867;-71
2021/11/02 13:24:35;;;;;;;5.20;4.70;;;;;;;10.05;100.00;99280.06;5060027;28;20304;-71
2021/11/02 13:27:05;;;;;;;6.90;4.47;;;;;;;10.02;100.00;99280.19;5058464;28;20692;-71
2021/11/02 13:29:32;;;;;;;5.70;4.10;;;;;;;9.98;100.00;99273.44;5059617;28;20246;-71
2021/11/02 13:32:02;;;;;;;6.20;4.20;;;;;;;9.96;100.00;99280.47;5057562;28;20242;-71
2021/11/02 13:34:38;;;;;;;4.77;4.37;;;;;;;9.90;100.00;99278.13;5058778;28;20725;-71
2021/11/02 13:37:06;;;;;;;7.93;4.50;;;;;;;9.82;100.00;99280.25;5057172;28;20631;-71
2021/11/02 13:39:53;;;;;;;8.47;5.47;;;;;;;9.77;100.00;99288.25;5063250;28;20238;-71
2021/11/02 13:42:19;;;;;;;6.60;4.83;;;;;;;9.75;100.00;99278.84;5053477;28;20719;-71
2021/11/02 13:44:51;;;;;;;5.27;4.77;;;;;;;9.70;100.00;99292.03;5063577;28;20209;-71
2021/11/02 13:47:20;;;;;;;5.90;4.87;;;;;;;9.65;100.00;99289.63;5057226;28;20199;-71
2021/11/02 13:49:46;;;;;;;8.23;4.93;;;;;;;9.59;100.00;99286.47;5060972;28;20595;-71
2021/11/02 13:52:13;;;;;;;7.43;5.23;;;;;;;9.52;100.00;99283.28;5054474;28;20565;-71
2021/11/02 13:54:40;;;;;;;5.93;5.33;;;;;;;9.51;100.00;99289.38;5060631;28;20755;-71
2021/11/02 13:57:09;;;;;;;6.43;5.60;;;;;;;9.52;100.00;99291.09;5061601;28;20203;-71
2021/11/02 13:59:35;;;;;;;6.67;6.07;;;;;;;9.48;100.00;99290.38;5057948;28;20196;-71
2021/11/02 14:02:02;;;;;;;7.10;6.27;;;;;;;9.47;100.00;99293.88;5060882;28;20883;-71
2021/11/02 14:04:33;;;;;;;8.30;6.40;;;;;;;9.46;100.00;99291.34;5063607;28;20672;-71
2021/11/02 14:07:04;;;;;;;8.83;7.23;;;;;;;9.45;100.00;99300.06;5062778;28;20734;-71
2021/11/02 14:09:34;;;;;;;7.77;6.77;;;;;;;9.48;100.00;99299.94;5059434;28;20222;-71
2021/11/02 14:12:01;;;;;;;8.43;6.03;;;;;;;9.48;100.00;99298.19;5061536;28;20222;-71
2021/11/02 14:14:34;;;;;;;14.20;8.37;;;;;;;9.51;100.00;99284.19;5067524;28;20470;-71
2021/11/02 14:17:16;;;;;;;7.13;6.43;;;;;;;9.50;100.00;99297.25;5063001;28;20211;-71
2021/11/02 14:19:43;;;;;;;9.90;7.60;;;;;;;9.48;100.00;99292.97;5063558;28;20226;-71
2021/11/02 14:22:10;;;;;;;7.07;6.17;;;;;;;9.45;100.00;99287.91;5065729;28;20229;-71
2021/11/02 14:24:39;;;;;;;9.20;6.67;;;;;;;9.46;100.00;99293.94;5061829;28;20214;-71
2021/11/02 14:27:08;;;;;;;7.17;6.27;;;;;;;9.48;100.00;99294.75;5061829;28;20206;-72
2021/11/02 14:29:55;;;;;;;15.43;9.80;;;;;;;9.51;100.00;99297.19;5062778;28;20687;-71
2021/11/02 14:32:47;;;;;;;7.80;6.97;;;;;;;9.50;100.00;99295.53;5062860;28;20609;-71
2021/11/02 14:35:39;;;;;;;10.47;8.60;;;;;;;9.49;100.00;99299.03;5061366;28;20376;-71
2021/11/02 14:38:07;;;;;;;10.77;6.77;;;;;;;9.47;100.00;99303.44;5062225;28;20574;-71
2021/11/02 14:40:35;;;;;;;8.97;6.73;;;;;;;9.47;100.00;99304.28;5067684;28;20202;-71
2021/11/02 14:43:27;;;;;;;6.73;6.13;;;;;;;9.46;100.00;99306.94;5064143;28;20541;-71
2021/11/02 14:45:57;;;;;;;6.47;5.67;;;;;;;9.45;100.00;99307.88;5060890;28;20221;-71
2021/11/02 14:48:33;;;;;;;7.00;6.00;;;;;;;9.46;100.00;99301.75;5064815;28;20205;-71
2021/11/02 14:51:00;;;;;;;8.03;5.97;;;;;;;9.46;100.00;99299.13;5064918;28;20218;-71
2021/11/02 14:53:32;;;;;;;7.27;5.83;;;;;;;9.45;100.00;99300.06;5061009;28;20241;-71
2021/11/02 14:56:00;;;;;;;6.90;5.57;;;;;;;9.44;100.00;99304.41;5064107;28;20214;-71
2021/11/02 14:58:52;;;;;;;10.67;6.00;;;;;;;9.42;100.00;99303.63;5061697;28;20199;-71
2021/11/02 15:01:23;;;;;;;7.60;6.17;;;;;;;9.38;100.00;99294.28;5062975;28;20198;-71
2021/11/02 15:03:52;;;;;;;10.80;6.20;;;;;;;9.34;100.00;99300.53;5061534;28;20209;-71
2021/11/02 15:06:20;;;;;;;9.40;6.87;;;;;;;9.26;100.00;99298.22;5061374;28;20281;-71
2021/11/02 15:08:47;;;;;;;10.53;7.40;;;;;;;9.21;100.00;99301.94;5060549;28;20203;-72
2021/11/02 15:11:17;;;;;;;11.00;8.30;;;;;;;9.13;100.00;99302.28;5061762;28;20298;-71
2021/11/02 15:13:49;;;;;;;8.60;7.70;;;;;;;9.03;100.00;99298.34;5063365;28;20297;-71
2021/11/02 15:16:15;;;;;;;11.90;7.77;;;;;;;8.93;100.00;99303.06;5060936;28;20235;-72
2021/11/02 15:18:44;;;;;;;10.43;7.27;;;;;;;8.83;100.00;99305.19;5061909;28;20687;-71
2021/11/02 15:21:16;;;;;;;15.73;8.80;;;;;;;8.74;100.00;99308.16;5051855;28;20223;-71
2021/11/02 15:23:46;;;;;;;15.90;10.43;;;;;;;8.64;100.00;99307.69;5062360;28;20275;-71
2021/11/02 15:26:14;;;;;;;20.03;13.53;;;;;;;8.52;100.00;99303.78;5058081;28;20635;-71
2021/11/02 15:28:42;;;;;;;20.43;14.50;;;;;;;8.42;100.00;99306.78;5058696;28;20212;-72
2021/11/02 15:31:09;;;;;;;21.40;14.80;;;;;;;8.33;100.00;99308.81;5059839;28;20224;-71
2021/11/02 15:33:39;;;;;;;19.70;15.27;;;;;;;8.23;100.00;99307.47;5059717;28;20728;-71
2021/11/02 15:36:19;;;;;;;17.77;11.97;;;;;;;8.12;100.00;99305.25;5058225;28;20302;-71
2021/11/02 15:38:57;;;;;;;17.37;12.73;;;;;;;8.04;100.00;99309.91;5064362;28;20887;-71
2021/11/02 15:41:26;;;;;;;16.13;12.80;;;;;;;7.97;100.00;99308.44;5061510;28;20245;-71
2021/11/02 15:43:58;;;;;;;15.47;11.30;;;;;;;7.89;100.00;99313.88;5062852;28;20832;-71
2021/11/02 15:46:33;;;;;;;13.43;10.83;;;;;;;7.81;100.00;99309.88;5062340;28;20295;-71
2021/11/02 15:49:02;;;;;;;16.10;11.33;;;;;;;7.73;100.00;99308.41;5061623;28;20513;-71
2021/11/02 15:51:35;;;;;;;14.93;10.43;;;;;;;7.67;100.00;99312.97;5057942;28;20837;-71
2021/11/02 15:54:07;;;;;;;13.93;10.90;;;;;;;7.58;100.00;99320.19;5057093;28;20231;-71
2021/11/02 15:56:33;;;;;;;19.67;14.23;;;;;;;7.51;100.00;99317.84;5055302;28;20214;-71
2021/11/02 15:59:02;;;;;;;22.20;13.17;;;;;;;7.46;100.00;99318.00;5064107;28;20203;-71